createdAt,value
2023-04-16T00:01:34.428Z,7.76
2023-04-16T00:04:03.044Z,7.75
2023-04-16T00:06:32.481Z,7.68
2023-04-16T00:09:00.759Z,7.72
2023-04-16T00:11:28.877Z,7.67
2023-04-16T00:13:57.038Z,7.66
2023-04-16T00:16:26.919Z,7.66
2023-04-16T00:18:55.196Z,7.72
2023-04-16T00:21:23.319Z,7.72
2023-04-16T00:23:52.060Z,7.62
2023-04-16T00:26:20.538Z,7.66
2023-04-16T00:28:48.820Z,7.67
2023-04-16T00:31:17.396Z,7.66
2023-04-16T00:33:46.838Z,7.64
2023-04-16T00:36:15.123Z,7.64
2023-04-16T00:38:43.404Z,7.53
2023-04-16T00:41:11.604Z,7.58
2023-04-16T00:43:43.299Z,7.59
2023-04-16T00:46:11.512Z,7.60
2023-04-16T00:48:42.182Z,7.57
2023-04-16T00:51:12.386Z,7.55
2023-04-16T00:53:40.690Z,7.63
2023-04-16T00:56:09.313Z,7.57
2023-04-16T00:58:37.449Z,7.57
2023-04-16T01:01:05.922Z,7.61
2023-04-16T01:03:38.176Z,7.65
2023-04-16T01:06:07.453Z,7.70
2023-04-16T01:08:36.997Z,7.66
2023-04-16T01:11:05.257Z,7.56
2023-04-16T01:13:33.638Z,7.57
2023-04-16T01:16:02.150Z,7.59
2023-04-16T01:18:30.862Z,7.63
2023-04-16T01:21:00.419Z,7.58
2023-04-16T01:23:28.672Z,7.59
2023-04-16T01:25:57.132Z,7.63
2023-04-16T01:28:25.500Z,7.62
2023-04-16T01:30:53.645Z,7.62
2023-04-16T01:33:21.983Z,7.65
2023-04-16T01:35:50.236Z,7.59
2023-04-16T01:38:19.697Z,7.62
2023-04-16T01:40:47.939Z,7.65
2023-04-16T01:43:16.357Z,7.63
2023-04-16T01:45:44.542Z,7.60
2023-04-16T01:48:12.900Z,7.61
2023-04-16T01:50:41.103Z,7.62
2023-04-16T01:53:09.624Z,7.64
2023-04-16T01:55:40.008Z,7.62
2023-04-16T01:58:10.877Z,7.59
2023-04-16T02:00:40.164Z,7.60
2023-04-16T02:03:08.664Z,7.59
2023-04-16T02:05:36.808Z,7.66
2023-04-16T02:08:05.032Z,7.72
2023-04-16T02:10:48.835Z,7.68
2023-04-16T02:13:17.525Z,7.71
2023-04-16T02:15:45.965Z,7.72
2023-04-16T02:18:14.258Z,7.69
2023-04-16T02:20:42.562Z,7.73
2023-04-16T02:23:11.718Z,7.69
2023-04-16T02:25:41.153Z,7.65
2023-04-16T02:28:10.910Z,7.63
2023-04-16T02:30:40.288Z,7.69
2023-04-16T02:33:09.344Z,7.65
2023-04-16T02:35:37.958Z,7.69
2023-04-16T02:38:06.222Z,7.74
2023-04-16T02:40:34.707Z,7.74
2023-04-16T02:43:03.138Z,7.74
2023-04-16T02:45:32.593Z,7.76
2023-04-16T02:48:01.368Z,7.76
2023-04-16T02:50:29.704Z,7.86
2023-04-16T02:52:57.754Z,7.83
2023-04-16T02:55:26.154Z,7.80
2023-04-16T02:57:54.545Z,7.80
2023-04-16T03:00:23.075Z,7.76
2023-04-16T03:02:53.032Z,7.82
2023-04-16T03:05:21.500Z,7.74
2023-04-16T03:07:50.649Z,7.66
2023-04-16T03:10:33.153Z,7.70
2023-04-16T03:13:01.490Z,7.73
2023-04-16T03:15:29.740Z,7.70
2023-04-16T03:18:00.037Z,7.70
2023-04-16T03:20:28.669Z,7.77
2023-04-16T03:22:57.216Z,7.82
2023-04-16T03:25:25.524Z,7.85
2023-04-16T03:27:53.709Z,7.91
2023-04-16T03:30:21.968Z,7.89
2023-04-16T03:32:50.695Z,7.91
2023-04-16T03:35:20.417Z,7.91
2023-04-16T03:37:49.940Z,7.89
2023-04-16T03:40:18.316Z,7.84
2023-04-16T03:42:46.483Z,7.91
2023-04-16T03:45:14.983Z,7.94
2023-04-16T03:47:43.220Z,8.01
2023-04-16T03:50:13.325Z,7.87
2023-04-16T03:52:42.844Z,7.94
2023-04-16T03:55:11.218Z,8.00
2023-04-16T03:57:39.333Z,8.00
2023-04-16T04:00:08.146Z,8.01
2023-04-16T04:02:36.597Z,8.01
2023-04-16T04:05:05.046Z,7.99
2023-04-16T04:07:33.408Z,8.04
2023-04-16T04:10:02.903Z,7.93
2023-04-16T04:12:31.004Z,7.98
2023-04-16T04:14:59.164Z,7.97
2023-04-16T04:17:27.786Z,7.97
2023-04-16T04:20:01.357Z,7.97
2023-04-16T04:22:30.635Z,7.94
2023-04-16T04:24:58.881Z,7.92
2023-04-16T04:27:28.591Z,7.91
2023-04-16T04:29:57.464Z,7.91
2023-04-16T04:32:25.822Z,7.94
2023-04-16T04:34:54.144Z,8.03
2023-04-16T04:37:22.214Z,7.97
2023-04-16T04:39:50.866Z,7.91
2023-04-16T04:42:19.312Z,7.87
2023-04-16T04:44:48.919Z,7.94
2023-04-16T04:47:17.089Z,7.92
2023-04-16T04:49:45.253Z,7.97
2023-04-16T04:52:13.532Z,7.94
2023-04-16T04:54:42.068Z,8.01
2023-04-16T04:57:10.421Z,7.97
2023-04-16T04:59:38.482Z,8.02
2023-04-16T05:02:08.277Z,8.05
2023-04-16T05:04:36.802Z,8.12
2023-04-16T05:07:06.499Z,8.22
2023-04-16T05:09:34.715Z,8.15
2023-04-16T05:12:03.260Z,8.16
2023-04-16T05:14:31.335Z,8.11
2023-04-16T05:16:59.794Z,8.17
2023-04-16T05:19:29.289Z,8.17
2023-04-16T05:21:57.552Z,8.24
2023-04-16T05:24:25.820Z,8.29
2023-04-16T05:26:53.897Z,8.30
2023-04-16T05:29:22.128Z,8.26
2023-04-16T05:31:50.236Z,8.38
2023-04-16T05:34:18.373Z,8.39
2023-04-16T05:36:48.060Z,8.33
2023-04-16T05:39:16.951Z,8.37
2023-04-16T05:41:45.351Z,8.36
2023-04-16T05:44:13.519Z,8.38
2023-04-16T05:46:41.676Z,8.38
2023-04-16T05:49:11.904Z,8.38
2023-04-16T05:51:40.281Z,8.50
2023-04-16T05:54:09.817Z,8.58
2023-04-16T05:56:38.118Z,8.54
2023-04-16T05:59:06.376Z,8.62
2023-04-16T06:01:34.624Z,8.70
2023-04-16T06:04:02.896Z,8.75
2023-04-16T06:06:31.392Z,8.80
2023-04-16T06:08:59.660Z,8.88
2023-04-16T06:11:30.528Z,8.96
2023-04-16T06:13:58.810Z,8.90
2023-04-16T06:16:27.018Z,8.92
2023-04-16T06:18:55.625Z,9.01
2023-04-16T06:21:24.154Z,9.14
2023-04-16T06:23:52.411Z,9.15
2023-04-16T06:26:20.647Z,9.15
2023-04-16T06:28:50.662Z,9.16
2023-04-16T06:31:18.830Z,9.25
2023-04-16T06:33:47.487Z,9.36
2023-04-16T06:36:16.650Z,9.43
2023-04-16T06:38:45.213Z,9.52
2023-04-16T06:41:14.622Z,9.47
2023-04-16T06:43:42.735Z,9.44
2023-04-16T06:46:12.413Z,9.47
2023-04-16T06:48:40.931Z,9.64
2023-04-16T06:51:09.378Z,9.65
2023-04-16T06:53:37.729Z,9.69
2023-04-16T06:56:06.351Z,9.77
2023-04-16T06:58:34.591Z,9.93
2023-04-16T07:01:03.178Z,9.97
2023-04-16T07:03:33.145Z,9.97
2023-04-16T07:06:01.503Z,9.95
2023-04-16T07:08:30.078Z,10.02
2023-04-16T07:10:58.228Z,10.00
2023-04-16T07:13:26.417Z,9.80
2023-04-16T07:15:54.950Z,9.72
2023-04-16T07:18:23.116Z,9.80
2023-04-16T07:20:52.630Z,9.77
2023-04-16T07:23:20.692Z,9.81
2023-04-16T07:25:48.837Z,9.89
2023-04-16T07:28:17.552Z,10.04
2023-04-16T07:30:45.869Z,10.16
2023-04-16T07:33:14.313Z,10.28
2023-04-16T07:35:42.983Z,10.30
2023-04-16T07:38:12.423Z,10.48
2023-04-16T07:40:40.688Z,10.78
2023-04-16T07:43:10.503Z,10.75
2023-04-16T07:45:39.295Z,10.57
2023-04-16T07:48:08.797Z,10.68
2023-04-16T07:50:37.232Z,10.57
2023-04-16T07:53:07.482Z,10.63
2023-04-16T07:55:36.994Z,10.69
2023-04-16T07:58:06.394Z,10.79
2023-04-16T08:00:34.693Z,10.87
2023-04-16T08:03:02.927Z,10.95
2023-04-16T08:05:32.617Z,10.77
2023-04-16T08:08:01.720Z,11.06
2023-04-16T08:10:29.835Z,11.54
2023-04-16T08:13:01.176Z,11.74
2023-04-16T08:15:32.299Z,11.96
2023-04-16T08:18:00.628Z,12.09
2023-04-16T08:20:28.954Z,12.16
2023-04-16T08:22:57.299Z,12.30
2023-04-16T08:25:25.733Z,12.35
2023-04-16T08:27:54.030Z,12.70
2023-04-16T08:30:24.149Z,12.99
2023-04-16T08:32:52.422Z,13.03
2023-04-16T08:35:20.618Z,12.90
2023-04-16T08:37:48.746Z,12.88
2023-04-16T08:40:17.076Z,12.62
2023-04-16T08:42:46.598Z,12.45
2023-04-16T08:45:15.811Z,12.30
2023-04-16T08:47:46.932Z,12.22
2023-04-16T08:50:16.084Z,12.27
2023-04-16T08:52:47.314Z,12.53
2023-04-16T08:55:17.545Z,12.37
2023-04-16T08:57:48.163Z,12.22
2023-04-16T09:00:17.530Z,12.30
2023-04-16T09:02:47.424Z,12.45
2023-04-16T09:05:18.229Z,12.46
2023-04-16T09:07:47.727Z,12.61
2023-04-16T09:10:19.131Z,12.60
2023-04-16T09:12:47.954Z,12.46
2023-04-16T09:15:16.376Z,12.68
2023-04-16T09:17:45.388Z,12.71
2023-04-16T09:20:15.981Z,12.82
2023-04-16T09:22:44.482Z,12.87
2023-04-16T09:25:13.276Z,12.90
2023-04-16T09:27:42.045Z,12.72
2023-04-16T09:30:21.906Z,12.60
2023-04-16T09:32:50.540Z,12.64
2023-04-16T09:35:21.122Z,12.66
2023-04-16T09:37:56.532Z,12.70
2023-04-16T09:40:27.389Z,12.71
2023-04-16T09:42:58.302Z,12.82
2023-04-16T09:45:26.570Z,13.18
2023-04-16T09:48:03.454Z,13.35
2023-04-16T09:50:33.479Z,13.72
2023-04-16T09:53:03.420Z,14.09
2023-04-16T09:55:31.673Z,14.62
2023-04-16T09:58:00.349Z,15.33
2023-04-16T10:00:30.061Z,15.64
2023-04-16T10:03:04.640Z,16.28
2023-04-16T10:05:34.414Z,16.79
2023-04-16T10:08:02.898Z,16.33
2023-04-16T10:10:31.574Z,15.67
2023-04-16T10:12:59.823Z,14.97
2023-04-16T10:15:28.748Z,15.13
2023-04-16T10:18:00.332Z,15.30
2023-04-16T10:20:29.464Z,15.29
2023-04-16T10:22:59.910Z,15.38
2023-04-16T10:25:43.390Z,16.03
2023-04-16T10:28:13.632Z,16.29
2023-04-16T10:30:43.898Z,16.23
2023-04-16T10:33:13.272Z,15.58
2023-04-16T10:35:41.478Z,15.66
2023-04-16T10:38:24.146Z,16.25
2023-04-16T10:40:59.794Z,16.63
2023-04-16T10:43:29.328Z,16.43
2023-04-16T10:45:57.644Z,16.43
2023-04-16T10:48:27.456Z,16.58
2023-04-16T10:51:01.094Z,17.18
2023-04-16T10:53:30.493Z,17.34
2023-04-16T10:56:10.876Z,17.78
2023-04-16T10:58:39.505Z,17.84
2023-04-16T11:01:13.480Z,17.71
2023-04-16T11:03:42.585Z,17.82
2023-04-16T11:06:11.516Z,16.55
2023-04-16T11:08:51.071Z,16.68
2023-04-16T11:11:23.287Z,16.35
2023-04-16T11:13:55.647Z,16.51
2023-04-16T11:16:25.641Z,16.52
2023-04-16T11:18:55.512Z,16.43
2023-04-16T11:21:26.800Z,15.87
2023-04-16T11:23:58.911Z,15.45
2023-04-16T11:26:28.526Z,14.83
2023-04-16T11:28:57.617Z,14.46
2023-04-16T11:31:27.485Z,14.36
2023-04-16T11:33:56.989Z,14.04
2023-04-16T11:36:27.847Z,13.91
2023-04-16T11:39:04.798Z,13.89
2023-04-16T11:41:33.118Z,13.82
2023-04-16T11:44:02.133Z,13.59
2023-04-16T11:46:40.483Z,13.43
2023-04-16T11:49:09.498Z,13.35
2023-04-16T11:51:42.027Z,13.50
2023-04-16T11:54:19.109Z,13.87
2023-04-16T11:56:48.601Z,14.13
2023-04-16T11:59:18.331Z,14.28
2023-04-16T12:01:47.923Z,14.37
2023-04-16T12:04:16.810Z,14.25
2023-04-16T12:07:00.201Z,14.20
2023-04-16T12:09:30.130Z,14.15
2023-04-16T12:11:58.802Z,14.04
2023-04-16T12:14:26.996Z,14.11
2023-04-16T12:16:55.418Z,14.28
2023-04-16T12:19:23.669Z,14.43
2023-04-16T12:21:51.868Z,14.46
2023-04-16T12:24:22.504Z,14.28
2023-04-16T12:26:57.387Z,14.25
2023-04-16T12:29:27.903Z,14.45
2023-04-16T12:31:56.213Z,14.81
2023-04-16T12:34:41.897Z,14.99
2023-04-16T12:37:13.036Z,15.30
2023-04-16T12:39:42.601Z,15.50
2023-04-16T12:42:12.800Z,15.47
2023-04-16T12:44:41.085Z,15.25
2023-04-16T12:47:09.799Z,14.96
2023-04-16T12:49:38.542Z,14.73
2023-04-16T12:52:06.977Z,14.74
2023-04-16T12:54:35.242Z,15.07
2023-04-16T12:57:03.982Z,15.13
2023-04-16T12:59:33.945Z,15.00
2023-04-16T13:02:03.637Z,14.73
2023-04-16T13:04:32.028Z,14.77
2023-04-16T13:07:00.465Z,14.81
2023-04-16T13:09:28.799Z,14.76
2023-04-16T13:11:57.186Z,14.65
2023-04-16T13:14:26.164Z,14.72
2023-04-16T13:16:56.094Z,14.88
2023-04-16T13:19:24.556Z,15.15
2023-04-16T13:21:52.643Z,15.64
2023-04-16T13:24:21.012Z,16.02
2023-04-16T13:26:49.294Z,16.43
2023-04-16T13:29:17.487Z,16.79
2023-04-16T13:31:45.781Z,17.22
2023-04-16T13:34:15.390Z,17.34
2023-04-16T13:36:43.513Z,17.45
2023-04-16T13:39:11.893Z,17.09
2023-04-16T13:41:40.260Z,16.88
2023-04-16T13:44:08.461Z,16.57
2023-04-16T13:46:37.863Z,16.25
2023-04-16T13:49:08.641Z,16.03
2023-04-16T13:51:39.040Z,15.95
2023-04-16T13:54:07.405Z,16.20
2023-04-16T13:56:36.101Z,16.44
2023-04-16T13:59:04.639Z,17.02
2023-04-16T14:01:32.942Z,17.29
2023-04-16T14:04:05.980Z,16.58
2023-04-16T14:06:35.038Z,15.94
2023-04-16T14:09:04.747Z,15.38
2023-04-16T14:11:32.955Z,14.98
2023-04-16T14:14:01.305Z,14.68
2023-04-16T14:16:29.722Z,14.82
2023-04-16T14:18:59.252Z,14.99
2023-04-16T14:21:28.904Z,15.40
2023-04-16T14:23:58.036Z,15.66
2023-04-16T14:26:29.295Z,15.82
2023-04-16T14:28:57.540Z,15.49
2023-04-16T14:31:26.051Z,15.72
2023-04-16T14:33:54.690Z,15.87
2023-04-16T14:36:22.885Z,15.83
2023-04-16T14:38:51.413Z,15.97
2023-04-16T14:41:20.270Z,15.92
2023-04-16T14:43:50.821Z,15.71
2023-04-16T14:46:19.243Z,15.76
2023-04-16T14:48:47.597Z,16.05
2023-04-16T14:51:17.306Z,15.75
2023-04-16T14:53:46.823Z,15.77
2023-04-16T14:56:14.960Z,15.72
2023-04-16T14:58:43.572Z,15.65
2023-04-16T15:01:14.978Z,15.49
2023-04-16T15:03:43.893Z,15.38
2023-04-16T15:06:12.131Z,15.48
2023-04-16T15:08:40.762Z,15.39
2023-04-16T15:11:09.114Z,15.42
2023-04-16T15:13:37.899Z,15.53
2023-04-16T15:16:07.007Z,16.04
2023-04-16T15:18:37.146Z,16.54
2023-04-16T15:21:05.827Z,16.89
2023-04-16T15:23:34.382Z,16.77
2023-04-16T15:26:03.281Z,16.87
2023-04-16T15:28:31.715Z,16.95
2023-04-16T15:31:00.394Z,16.93
2023-04-16T15:33:28.763Z,16.95
2023-04-16T15:35:59.172Z,17.14
2023-04-16T15:38:29.787Z,17.43
2023-04-16T15:40:59.473Z,17.39
2023-04-16T15:43:28.230Z,17.61
2023-04-16T15:45:57.403Z,17.43
2023-04-16T15:48:26.159Z,17.35
2023-04-16T15:50:55.272Z,17.38
2023-04-16T15:53:25.286Z,17.44
2023-04-16T15:55:53.910Z,17.31
2023-04-16T15:58:23.328Z,17.15
2023-04-16T16:00:51.926Z,17.62
2023-04-16T16:03:20.419Z,17.70
2023-04-16T16:05:48.863Z,18.05
2023-04-16T16:08:17.564Z,17.86
2023-04-16T16:10:47.686Z,17.66
2023-04-16T16:13:18.165Z,17.74
2023-04-16T16:15:46.265Z,17.22
2023-04-16T16:18:14.883Z,17.03
2023-04-16T16:20:43.142Z,16.91
2023-04-16T16:23:11.493Z,16.68
2023-04-16T16:25:41.904Z,16.61
2023-04-16T16:28:11.810Z,16.27
2023-04-16T16:30:40.838Z,16.08
2023-04-16T16:33:09.373Z,15.76
2023-04-16T16:35:37.885Z,15.50
2023-04-16T16:38:06.357Z,15.42
2023-04-16T16:40:34.794Z,15.30
2023-04-16T16:43:03.592Z,15.13
2023-04-16T16:45:33.091Z,15.06
2023-04-16T16:48:04.593Z,14.94
2023-04-16T16:50:33.563Z,14.67
2023-04-16T16:53:01.743Z,14.53
2023-04-16T16:55:31.666Z,14.38
2023-04-16T16:58:01.696Z,14.34
2023-04-16T17:00:30.472Z,14.24
2023-04-16T17:03:01.576Z,14.24
2023-04-16T17:05:31.055Z,14.21
2023-04-16T17:07:59.870Z,14.14
2023-04-16T17:10:28.340Z,14.09
2023-04-16T17:12:56.923Z,13.94
2023-04-16T17:15:26.436Z,13.93
2023-04-16T17:17:57.445Z,13.80
2023-04-16T17:20:27.400Z,13.73
2023-04-16T17:22:59.713Z,13.59
2023-04-16T17:25:28.323Z,13.44
2023-04-16T17:27:56.460Z,13.42
2023-04-16T17:30:27.245Z,13.34
2023-04-16T17:32:55.467Z,13.24
2023-04-16T17:35:24.800Z,13.24
2023-04-16T17:37:55.110Z,13.05
2023-04-16T17:40:23.808Z,13.02
2023-04-16T17:42:52.268Z,12.93
2023-04-16T17:45:21.583Z,12.87
2023-04-16T17:47:49.902Z,12.76
2023-04-16T17:50:18.248Z,12.60
2023-04-16T17:52:47.134Z,12.54
2023-04-16T17:55:17.488Z,12.53
2023-04-16T17:57:45.777Z,12.33
2023-04-16T18:00:14.367Z,12.26
2023-04-16T18:02:43.076Z,12.26
2023-04-16T18:05:11.641Z,12.25
2023-04-16T18:07:40.421Z,12.21
2023-04-16T18:10:10.031Z,12.05
2023-04-16T18:12:39.789Z,12.00
2023-04-16T18:15:08.494Z,11.91
2023-04-16T18:17:36.740Z,11.86
2023-04-16T18:20:07.729Z,11.77
2023-04-16T18:22:36.644Z,11.65
2023-04-16T18:25:05.394Z,11.60
2023-04-16T18:27:33.632Z,11.55
2023-04-16T18:30:04.771Z,11.51
2023-04-16T18:32:33.853Z,11.48
2023-04-16T18:35:02.380Z,11.55
2023-04-16T18:37:30.771Z,11.49
2023-04-16T18:39:59.010Z,11.43
2023-04-16T18:42:28.035Z,11.39
2023-04-16T18:44:56.882Z,11.43
2023-04-16T18:47:26.644Z,11.36
2023-04-16T18:49:54.901Z,11.26
2023-04-16T18:52:23.277Z,11.18
2023-04-16T18:54:51.651Z,11.08
2023-04-16T18:57:20.368Z,11.20
2023-04-16T18:59:48.787Z,11.19
2023-04-16T19:02:17.430Z,11.17
2023-04-16T19:04:47.777Z,11.20
2023-04-16T19:07:16.510Z,11.23
2023-04-16T19:09:44.598Z,11.19
2023-04-16T19:12:13.223Z,11.20
2023-04-16T19:14:42.876Z,11.24
2023-04-16T19:17:12.470Z,11.22
2023-04-16T19:19:40.711Z,11.13
2023-04-16T19:22:10.434Z,11.27
2023-04-16T19:24:38.746Z,11.18
2023-04-16T19:27:06.819Z,11.18
2023-04-16T19:29:35.517Z,11.19
2023-04-16T19:32:03.868Z,11.13
2023-04-16T19:34:32.037Z,11.18
2023-04-16T19:37:00.307Z,11.04
2023-04-16T19:39:29.853Z,10.96
2023-04-16T19:41:58.079Z,11.01
2023-04-16T19:44:27.589Z,10.96
2023-04-16T19:46:56.000Z,10.90
2023-04-16T19:49:25.156Z,10.80
2023-04-16T19:51:53.208Z,10.84
2023-04-16T19:54:21.942Z,10.80
2023-04-16T19:56:52.702Z,10.78
2023-04-16T19:59:21.593Z,10.75
2023-04-16T20:01:50.166Z,10.74
2023-04-16T20:04:18.603Z,10.67
2023-04-16T20:06:47.079Z,10.65
2023-04-16T20:09:15.444Z,10.67
2023-04-16T20:11:44.434Z,10.60
2023-04-16T20:14:13.919Z,10.60
2023-04-16T20:16:43.580Z,10.52
2023-04-16T20:19:18.707Z,10.51
2023-04-16T20:21:47.008Z,10.53
2023-04-16T20:24:15.493Z,10.53
2023-04-16T20:26:43.753Z,10.46
2023-04-16T20:29:12.334Z,10.46
2023-04-16T20:31:44.359Z,10.39
2023-04-16T20:34:12.766Z,10.33
2023-04-16T20:36:41.405Z,10.32
2023-04-16T20:39:10.814Z,10.31
2023-04-16T20:41:45.386Z,10.32
2023-04-16T20:44:18.012Z,10.37
2023-04-16T20:46:49.808Z,10.39
2023-04-16T20:49:18.740Z,10.36
2023-04-16T20:51:47.099Z,10.38
2023-04-16T20:54:15.766Z,10.42
2023-04-16T20:56:44.834Z,10.31
2023-04-16T20:59:14.354Z,10.32
2023-04-16T21:01:42.701Z,10.28
2023-04-16T21:04:12.515Z,10.23
2023-04-16T21:06:42.994Z,10.27
2023-04-16T21:09:11.707Z,10.23
2023-04-16T21:11:40.411Z,10.18
2023-04-16T21:14:09.116Z,10.15
2023-04-16T21:16:37.558Z,10.11
2023-04-16T21:19:06.043Z,10.07
2023-04-16T21:21:36.679Z,10.00
2023-04-16T21:24:05.344Z,10.02
2023-04-16T21:26:33.475Z,10.04
2023-04-16T21:29:01.523Z,9.99
2023-04-16T21:31:29.736Z,10.06
2023-04-16T21:33:58.537Z,10.00
2023-04-16T21:36:27.690Z,9.98
2023-04-16T21:38:57.159Z,9.98
2023-04-16T21:41:25.594Z,10.09
2023-04-16T21:43:53.988Z,10.10
2023-04-16T21:46:22.575Z,10.10
2023-04-16T21:48:50.892Z,10.09
2023-04-16T21:51:20.046Z,10.12
2023-04-16T21:53:48.218Z,10.09
2023-04-16T21:56:17.681Z,10.05
2023-04-16T21:58:45.870Z,10.01
2023-04-16T22:01:14.155Z,10.00
2023-04-16T22:03:42.872Z,10.06
2023-04-16T22:06:11.567Z,10.03
2023-04-16T22:08:53.558Z,9.93
2023-04-16T22:11:23.588Z,9.91
2023-04-16T22:13:51.894Z,9.90
2023-04-16T22:16:20.328Z,9.90
2023-04-16T22:18:48.431Z,9.86
2023-04-16T22:21:19.345Z,9.87
2023-04-16T22:23:47.714Z,9.86
2023-04-16T22:26:16.084Z,9.88
2023-04-16T22:28:45.551Z,9.86
2023-04-16T22:31:13.595Z,9.86
2023-04-16T22:33:41.676Z,9.78
2023-04-16T22:36:09.982Z,9.78
2023-04-16T22:38:38.617Z,9.80
2023-04-16T22:41:06.819Z,9.83
2023-04-16T22:43:36.963Z,9.94
2023-04-16T22:46:07.112Z,9.86
2023-04-16T22:48:36.235Z,9.81
2023-04-16T22:51:05.325Z,9.79
2023-04-16T22:53:33.714Z,9.76
2023-04-16T22:56:01.775Z,9.78
2023-04-16T22:58:30.338Z,9.79
2023-04-16T23:00:59.412Z,9.75
2023-04-16T23:03:29.174Z,9.77
2023-04-16T23:05:57.627Z,9.83
2023-04-16T23:08:25.959Z,9.82
2023-04-16T23:10:53.993Z,9.93
2023-04-16T23:13:22.105Z,9.90
2023-04-16T23:15:50.263Z,9.91
2023-04-16T23:18:19.397Z,9.93
2023-04-16T23:20:51.024Z,9.89
2023-04-16T23:23:19.183Z,9.86
2023-04-16T23:25:47.352Z,9.90
2023-04-16T23:28:15.672Z,9.95
2023-04-16T23:30:43.898Z,9.96
2023-04-16T23:33:11.958Z,9.93
2023-04-16T23:35:40.207Z,9.92
2023-04-16T23:38:09.628Z,9.93
2023-04-16T23:40:38.209Z,9.90
2023-04-16T23:43:06.337Z,9.90
2023-04-16T23:45:34.640Z,9.97
2023-04-16T23:48:03.064Z,9.95
2023-04-16T23:50:31.377Z,9.90
2023-04-16T23:52:59.474Z,9.87
2023-04-16T23:55:28.893Z,9.93
2023-04-16T23:57:57.432Z,9.88
